sensor_id;sensor_type;location;lat;lon;timestamp;P1;durP1;ratioP1;P2;durP2;ratioP2
75218;SDS011;63801;49.414;19.474;2023-12-22T00:00:17;3.30;;;1.38;;
75218;SDS011;63801;49.414;19.474;2023-12-22T00:02:17;2.80;;;1.20;;
75218;SDS011;63801;49.414;19.474;2023-12-22T00:04:17;4.90;;;1.92;;
75218;SDS011;63801;49.414;19.474;2023-12-22T00:06:18;4.00;;;1.08;;
75218;SDS011;63801;49.414;19.474;2023-12-22T00:08:18;2.20;;;1.20;;
75218;SDS011;63801;49.414;19.474;2023-12-22T00:10:18;1.38;;;0.93;;
75218;SDS011;63801;49.414;19.474;2023-12-22T00:12:19;8.70;;;2.30;;
75218;SDS011;63801;49.414;19.474;2023-12-22T00:14:19;1.48;;;0.80;;
75218;SDS011;63801;49.414;19.474;2023-12-22T00:16:19;1.58;;;1.02;;
75218;SDS011;63801;49.414;19.474;2023-12-22T00:18:20;5.28;;;1.63;;
75218;SDS011;63801;49.414;19.474;2023-12-22T00:20:20;1.48;;;1.00;;
75218;SDS011;63801;49.414;19.474;2023-12-22T00:22:20;1.85;;;1.05;;
75218;SDS011;63801;49.414;19.474;2023-12-22T00:24:20;4.05;;;1.52;;
75218;SDS011;63801;49.414;19.474;2023-12-22T00:26:21;3.17;;;1.40;;
75218;SDS011;63801;49.414;19.474;2023-12-22T00:28:21;3.22;;;1.30;;
75218;SDS011;63801;49.414;19.474;2023-12-22T00:30:21;3.42;;;1.63;;
75218;SDS011;63801;49.414;19.474;2023-12-22T00:32:24;4.88;;;2.00;;
75218;SDS011;63801;49.414;19.474;2023-12-22T00:34:24;3.80;;;1.23;;
75218;SDS011;63801;49.414;19.474;2023-12-22T00:36:25;3.88;;;1.38;;
75218;SDS011;63801;49.414;19.474;2023-12-22T00:38:25;5.20;;;1.90;;
75218;SDS011;63801;49.414;19.474;2023-12-22T00:40:25;2.05;;;1.15;;
75218;SDS011;63801;49.414;19.474;2023-12-22T00:42:26;2.78;;;1.50;;
75218;SDS011;63801;49.414;19.474;2023-12-22T00:44:26;3.22;;;1.23;;
75218;SDS011;63801;49.414;19.474;2023-12-22T00:46:28;3.67;;;1.48;;
75218;SDS011;63801;49.414;19.474;2023-12-22T00:48:29;1.60;;;1.00;;
75218;SDS011;63801;49.414;19.474;2023-12-22T00:50:29;2.97;;;1.10;;
75218;SDS011;63801;49.414;19.474;2023-12-22T00:52:30;3.20;;;1.30;;
75218;SDS011;63801;49.414;19.474;2023-12-22T00:54:30;2.28;;;1.00;;
75218;SDS011;63801;49.414;19.474;2023-12-22T00:56:31;3.50;;;1.08;;
75218;SDS011;63801;49.414;19.474;2023-12-22T00:58:31;3.20;;;0.90;;
75218;SDS011;63801;49.414;19.474;2023-12-22T01:00:32;3.25;;;1.08;;
75218;SDS011;63801;49.414;19.474;2023-12-22T01:02:32;1.58;;;0.75;;
75218;SDS011;63801;49.414;19.474;2023-12-22T01:04:32;2.38;;;0.95;;
75218;SDS011;63801;49.414;19.474;2023-12-22T01:06:36;1.38;;;0.90;;
75218;SDS011;63801;49.414;19.474;2023-12-22T01:08:37;1.95;;;0.60;;
75218;SDS011;63801;49.414;19.474;2023-12-22T01:10:38;1.52;;;0.80;;
75218;SDS011;63801;49.414;19.474;2023-12-22T01:12:39;3.80;;;0.80;;
75218;SDS011;63801;49.414;19.474;2023-12-22T01:14:39;3.03;;;0.80;;
75218;SDS011;63801;49.414;19.474;2023-12-22T01:16:39;1.75;;;1.00;;
75218;SDS011;63801;49.414;19.474;2023-12-22T01:18:39;1.77;;;0.73;;
75218;SDS011;63801;49.414;19.474;2023-12-22T01:20:42;2.80;;;0.90;;
75218;SDS011;63801;49.414;19.474;2023-12-22T01:22:42;2.95;;;0.90;;
75218;SDS011;63801;49.414;19.474;2023-12-22T01:24:43;2.90;;;1.17;;
75218;SDS011;63801;49.414;19.474;2023-12-22T01:26:45;2.22;;;0.98;;
75218;SDS011;63801;49.414;19.474;2023-12-22T01:28:45;4.80;;;1.00;;
75218;SDS011;63801;49.414;19.474;2023-12-22T01:30:45;3.35;;;0.95;;
75218;SDS011;63801;49.414;19.474;2023-12-22T01:32:46;2.97;;;0.82;;
75218;SDS011;63801;49.414;19.474;2023-12-22T01:34:46;1.98;;;0.70;;
75218;SDS011;63801;49.414;19.474;2023-12-22T01:36:47;3.20;;;1.00;;
75218;SDS011;63801;49.414;19.474;2023-12-22T01:38:47;7.57;;;1.00;;
75218;SDS011;63801;49.414;19.474;2023-12-22T01:40:47;1.50;;;0.70;;
75218;SDS011;63801;49.414;19.474;2023-12-22T01:42:48;3.15;;;1.13;;
75218;SDS011;63801;49.414;19.474;2023-12-22T01:44:48;1.90;;;0.90;;
75218;SDS011;63801;49.414;19.474;2023-12-22T01:46:49;1.88;;;1.00;;
75218;SDS011;63801;49.414;19.474;2023-12-22T01:48:50;3.88;;;1.20;;
75218;SDS011;63801;49.414;19.474;2023-12-22T01:50:51;1.67;;;0.98;;
75218;SDS011;63801;49.414;19.474;2023-12-22T01:52:52;1.52;;;0.93;;
75218;SDS011;63801;49.414;19.474;2023-12-22T01:54:53;2.35;;;0.90;;
75218;SDS011;63801;49.414;19.474;2023-12-22T01:56:55;1.40;;;0.95;;
75218;SDS011;63801;49.414;19.474;2023-12-22T01:58:57;2.15;;;0.73;;
75218;SDS011;63801;49.414;19.474;2023-12-22T02:01:00;2.70;;;0.98;;
75218;SDS011;63801;49.414;19.474;2023-12-22T02:03:01;1.55;;;0.90;;
75218;SDS011;63801;49.414;19.474;2023-12-22T02:05:02;0.73;;;0.55;;
75218;SDS011;63801;49.414;19.474;2023-12-22T02:07:03;1.77;;;0.73;;
75218;SDS011;63801;49.414;19.474;2023-12-22T02:09:03;3.08;;;0.90;;
75218;SDS011;63801;49.414;19.474;2023-12-22T02:11:04;1.67;;;0.70;;
75218;SDS011;63801;49.414;19.474;2023-12-22T02:13:04;3.28;;;0.50;;
75218;SDS011;63801;49.414;19.474;2023-12-22T02:15:05;0.57;;;0.40;;
75218;SDS011;63801;49.414;19.474;2023-12-22T02:17:16;2.50;;;0.60;;
75218;SDS011;63801;49.414;19.474;2023-12-22T02:19:35;1.33;;;0.77;;
75218;SDS011;63801;49.414;19.474;2023-12-22T02:21:59;0.30;;;0.30;;
75218;SDS011;63801;49.414;19.474;2023-12-22T02:24:00;1.70;;;0.63;;
75218;SDS011;63801;49.414;19.474;2023-12-22T02:26:06;0.65;;;0.40;;
75218;SDS011;63801;49.414;19.474;2023-12-22T02:28:13;0.93;;;0.50;;
75218;SDS011;63801;49.414;19.474;2023-12-22T02:30:23;0.77;;;0.50;;
75218;SDS011;63801;49.414;19.474;2023-12-22T02:32:34;2.15;;;0.40;;
75218;SDS011;63801;49.414;19.474;2023-12-22T02:34:37;2.25;;;0.75;;
75218;SDS011;63801;49.414;19.474;2023-12-22T02:38:40;1.23;;;0.70;;
75218;SDS011;63801;49.414;19.474;2023-12-22T02:40:42;1.60;;;1.03;;
75218;SDS011;63801;49.414;19.474;2023-12-22T02:42:43;0.77;;;0.70;;
75218;SDS011;63801;49.414;19.474;2023-12-22T02:44:44;1.27;;;0.50;;
75218;SDS011;63801;49.414;19.474;2023-12-22T02:46:46;6.40;;;1.23;;
75218;SDS011;63801;49.414;19.474;2023-12-22T02:48:46;2.17;;;0.93;;
75218;SDS011;63801;49.414;19.474;2023-12-22T02:50:46;0.90;;;0.65;;
75218;SDS011;63801;49.414;19.474;2023-12-22T02:52:47;2.92;;;0.80;;
75218;SDS011;63801;49.414;19.474;2023-12-22T02:54:47;4.10;;;0.70;;
75218;SDS011;63801;49.414;19.474;2023-12-22T02:56:47;4.38;;;0.93;;
75218;SDS011;63801;49.414;19.474;2023-12-22T02:58:48;1.42;;;0.85;;
75218;SDS011;63801;49.414;19.474;2023-12-22T03:00:48;3.13;;;1.23;;
75218;SDS011;63801;49.414;19.474;2023-12-22T03:02:48;5.82;;;1.20;;
75218;SDS011;63801;49.414;19.474;2023-12-22T03:04:48;4.78;;;1.20;;
75218;SDS011;63801;49.414;19.474;2023-12-22T03:06:49;3.60;;;0.90;;
75218;SDS011;63801;49.414;19.474;2023-12-22T03:08:49;1.98;;;0.90;;
75218;SDS011;63801;49.414;19.474;2023-12-22T03:10:49;1.42;;;0.70;;
75218;SDS011;63801;49.414;19.474;2023-12-22T03:12:50;2.22;;;1.10;;
75218;SDS011;63801;49.414;19.474;2023-12-22T03:14:50;1.40;;;0.90;;
75218;SDS011;63801;49.414;19.474;2023-12-22T03:16:50;3.80;;;1.13;;
75218;SDS011;63801;49.414;19.474;2023-12-22T03:18:51;4.28;;;1.30;;
75218;SDS011;63801;49.414;19.474;2023-12-22T03:20:51;6.47;;;1.20;;
75218;SDS011;63801;49.414;19.474;2023-12-22T03:22:51;5.93;;;0.90;;
75218;SDS011;63801;49.414;19.474;2023-12-22T03:24:52;2.13;;;0.70;;
75218;SDS011;63801;49.414;19.474;2023-12-22T03:26:52;8.02;;;1.13;;
75218;SDS011;63801;49.414;19.474;2023-12-22T03:28:52;1.75;;;1.02;;
75218;SDS011;63801;49.414;19.474;2023-12-22T03:30:53;6.97;;;1.23;;
75218;SDS011;63801;49.414;19.474;2023-12-22T03:32:53;5.25;;;1.10;;
75218;SDS011;63801;49.414;19.474;2023-12-22T03:34:53;2.28;;;0.80;;
75218;SDS011;63801;49.414;19.474;2023-12-22T03:36:54;12.52;;;1.33;;
75218;SDS011;63801;49.414;19.474;2023-12-22T03:38:54;4.45;;;0.90;;
75218;SDS011;63801;49.414;19.474;2023-12-22T03:40:54;3.20;;;0.82;;
75218;SDS011;63801;49.414;19.474;2023-12-22T03:42:55;5.88;;;1.05;;
75218;SDS011;63801;49.414;19.474;2023-12-22T03:44:55;2.70;;;1.00;;
75218;SDS011;63801;49.414;19.474;2023-12-22T03:46:55;6.78;;;1.38;;
75218;SDS011;63801;49.414;19.474;2023-12-22T03:48:56;4.88;;;1.40;;
75218;SDS011;63801;49.414;19.474;2023-12-22T03:50:56;5.40;;;0.98;;
75218;SDS011;63801;49.414;19.474;2023-12-22T03:52:56;5.22;;;1.25;;
75218;SDS011;63801;49.414;19.474;2023-12-22T03:54:57;3.25;;;1.10;;
75218;SDS011;63801;49.414;19.474;2023-12-22T03:56:57;3.30;;;1.00;;
75218;SDS011;63801;49.414;19.474;2023-12-22T03:58:57;5.20;;;1.10;;
75218;SDS011;63801;49.414;19.474;2023-12-22T04:00:58;9.77;;;1.33;;
75218;SDS011;63801;49.414;19.474;2023-12-22T04:02:58;2.80;;;1.13;;
75218;SDS011;63801;49.414;19.474;2023-12-22T04:04:58;7.03;;;1.20;;
75218;SDS011;63801;49.414;19.474;2023-12-22T04:06:59;3.22;;;1.08;;
75218;SDS011;63801;49.414;19.474;2023-12-22T04:08:59;2.38;;;1.02;;
75218;SDS011;63801;49.414;19.474;2023-12-22T04:10:59;5.47;;;1.45;;
75218;SDS011;63801;49.414;19.474;2023-12-22T04:13:00;7.28;;;1.48;;
75218;SDS011;63801;49.414;19.474;2023-12-22T04:15:00;7.25;;;1.17;;
75218;SDS011;63801;49.414;19.474;2023-12-22T04:17:00;5.60;;;0.93;;
75218;SDS011;63801;49.414;19.474;2023-12-22T04:19:01;8.63;;;1.20;;
75218;SDS011;63801;49.414;19.474;2023-12-22T04:21:01;6.88;;;1.75;;
75218;SDS011;63801;49.414;19.474;2023-12-22T04:23:01;4.63;;;1.35;;
75218;SDS011;63801;49.414;19.474;2023-12-22T04:25:02;5.25;;;1.25;;
75218;SDS011;63801;49.414;19.474;2023-12-22T04:27:02;7.30;;;1.20;;
75218;SDS011;63801;49.414;19.474;2023-12-22T04:29:03;5.60;;;1.23;;
75218;SDS011;63801;49.414;19.474;2023-12-22T04:31:03;3.58;;;1.08;;
75218;SDS011;63801;49.414;19.474;2023-12-22T04:33:03;3.58;;;1.15;;
75218;SDS011;63801;49.414;19.474;2023-12-22T04:35:04;6.18;;;1.17;;
75218;SDS011;63801;49.414;19.474;2023-12-22T04:37:04;3.88;;;1.13;;
75218;SDS011;63801;49.414;19.474;2023-12-22T04:39:05;3.45;;;1.27;;
75218;SDS011;63801;49.414;19.474;2023-12-22T04:41:05;5.65;;;2.47;;
75218;SDS011;63801;49.414;19.474;2023-12-22T04:43:05;3.60;;;1.27;;
75218;SDS011;63801;49.414;19.474;2023-12-22T04:45:06;4.90;;;1.30;;
75218;SDS011;63801;49.414;19.474;2023-12-22T04:47:06;8.25;;;1.95;;
75218;SDS011;63801;49.414;19.474;2023-12-22T04:49:07;11.98;;;2.28;;
75218;SDS011;63801;49.414;19.474;2023-12-22T04:51:07;10.48;;;2.10;;
75218;SDS011;63801;49.414;19.474;2023-12-22T04:53:07;7.03;;;2.42;;
75218;SDS011;63801;49.414;19.474;2023-12-22T04:55:08;7.50;;;1.90;;
75218;SDS011;63801;49.414;19.474;2023-12-22T04:57:08;12.90;;;2.25;;
75218;SDS011;63801;49.414;19.474;2023-12-22T04:59:08;8.43;;;1.52;;
75218;SDS011;63801;49.414;19.474;2023-12-22T05:01:09;9.35;;;2.22;;
75218;SDS011;63801;49.414;19.474;2023-12-22T05:03:09;9.32;;;1.90;;
75218;SDS011;63801;49.414;19.474;2023-12-22T05:05:09;4.05;;;1.45;;
75218;SDS011;63801;49.414;19.474;2023-12-22T05:07:11;6.07;;;1.98;;
75218;SDS011;63801;49.414;19.474;2023-12-22T05:09:12;8.27;;;2.10;;
75218;SDS011;63801;49.414;19.474;2023-12-22T05:11:12;9.02;;;2.00;;
75218;SDS011;63801;49.414;19.474;2023-12-22T05:13:12;8.25;;;1.70;;
75218;SDS011;63801;49.414;19.474;2023-12-22T05:15:13;7.45;;;2.55;;
75218;SDS011;63801;49.414;19.474;2023-12-22T05:17:13;5.35;;;1.55;;
75218;SDS011;63801;49.414;19.474;2023-12-22T05:19:13;8.90;;;1.80;;
75218;SDS011;63801;49.414;19.474;2023-12-22T05:21:14;4.80;;;1.55;;
75218;SDS011;63801;49.414;19.474;2023-12-22T05:23:15;8.57;;;1.98;;
75218;SDS011;63801;49.414;19.474;2023-12-22T05:25:15;12.50;;;1.63;;
75218;SDS011;63801;49.414;19.474;2023-12-22T05:27:16;10.10;;;2.38;;
75218;SDS011;63801;49.414;19.474;2023-12-22T05:29:16;6.85;;;1.83;;
75218;SDS011;63801;49.414;19.474;2023-12-22T05:31:17;7.03;;;1.42;;
75218;SDS011;63801;49.414;19.474;2023-12-22T05:33:17;6.90;;;1.73;;
75218;SDS011;63801;49.414;19.474;2023-12-22T05:35:18;11.07;;;2.70;;
75218;SDS011;63801;49.414;19.474;2023-12-22T05:37:18;7.55;;;1.83;;
75218;SDS011;63801;49.414;19.474;2023-12-22T05:39:18;6.90;;;2.33;;
75218;SDS011;63801;49.414;19.474;2023-12-22T05:41:19;9.95;;;1.80;;
75218;SDS011;63801;49.414;19.474;2023-12-22T05:43:19;5.10;;;1.73;;
75218;SDS011;63801;49.414;19.474;2023-12-22T05:45:20;6.25;;;1.35;;
75218;SDS011;63801;49.414;19.474;2023-12-22T05:47:20;9.60;;;1.77;;
75218;SDS011;63801;49.414;19.474;2023-12-22T05:49:20;10.35;;;1.58;;
75218;SDS011;63801;49.414;19.474;2023-12-22T05:51:20;9.50;;;1.88;;
75218;SDS011;63801;49.414;19.474;2023-12-22T05:53:21;6.00;;;1.70;;
75218;SDS011;63801;49.414;19.474;2023-12-22T05:55:21;12.18;;;1.70;;
75218;SDS011;63801;49.414;19.474;2023-12-22T05:57:22;6.28;;;1.83;;
75218;SDS011;63801;49.414;19.474;2023-12-22T05:59:25;7.88;;;2.25;;
75218;SDS011;63801;49.414;19.474;2023-12-22T06:01:27;10.82;;;2.05;;
75218;SDS011;63801;49.414;19.474;2023-12-22T06:03:27;2.80;;;1.13;;
75218;SDS011;63801;49.414;19.474;2023-12-22T06:05:28;3.15;;;1.08;;
75218;SDS011;63801;49.414;19.474;2023-12-22T06:07:28;11.20;;;2.40;;
75218;SDS011;63801;49.414;19.474;2023-12-22T06:09:28;7.53;;;1.63;;
75218;SDS011;63801;49.414;19.474;2023-12-22T06:11:29;6.63;;;1.02;;
75218;SDS011;63801;49.414;19.474;2023-12-22T06:13:29;7.13;;;1.30;;
75218;SDS011;63801;49.414;19.474;2023-12-22T06:15:29;3.72;;;1.30;;
75218;SDS011;63801;49.414;19.474;2023-12-22T06:17:30;3.35;;;0.90;;
75218;SDS011;63801;49.414;19.474;2023-12-22T06:19:30;11.40;;;1.60;;
75218;SDS011;63801;49.414;19.474;2023-12-22T06:21:31;4.93;;;1.33;;
75218;SDS011;63801;49.414;19.474;2023-12-22T06:23:31;10.15;;;1.35;;
75218;SDS011;63801;49.414;19.474;2023-12-22T06:25:32;5.32;;;1.42;;
75218;SDS011;63801;49.414;19.474;2023-12-22T06:27:32;5.07;;;1.00;;
75218;SDS011;63801;49.414;19.474;2023-12-22T06:29:33;6.18;;;1.20;;
75218;SDS011;63801;49.414;19.474;2023-12-22T06:31:34;4.32;;;1.00;;
75218;SDS011;63801;49.414;19.474;2023-12-22T06:33:34;5.95;;;1.08;;
75218;SDS011;63801;49.414;19.474;2023-12-22T06:35:35;2.22;;;0.70;;
75218;SDS011;63801;49.414;19.474;2023-12-22T06:37:35;5.53;;;1.23;;
75218;SDS011;63801;49.414;19.474;2023-12-22T06:39:35;6.35;;;1.42;;
75218;SDS011;63801;49.414;19.474;2023-12-22T06:41:36;3.80;;;1.02;;
75218;SDS011;63801;49.414;19.474;2023-12-22T06:43:36;6.18;;;1.23;;
75218;SDS011;63801;49.414;19.474;2023-12-22T06:45:36;6.75;;;1.45;;
75218;SDS011;63801;49.414;19.474;2023-12-22T06:47:36;10.95;;;1.85;;
75218;SDS011;63801;49.414;19.474;2023-12-22T06:49:38;6.20;;;1.38;;
75218;SDS011;63801;49.414;19.474;2023-12-22T06:51:38;6.53;;;1.52;;
75218;SDS011;63801;49.414;19.474;2023-12-22T06:53:38;6.93;;;1.95;;
75218;SDS011;63801;49.414;19.474;2023-12-22T06:55:38;14.45;;;3.53;;
75218;SDS011;63801;49.414;19.474;2023-12-22T06:57:39;8.73;;;2.65;;
75218;SDS011;63801;49.414;19.474;2023-12-22T06:59:39;11.63;;;2.53;;
75218;SDS011;63801;49.414;19.474;2023-12-22T07:01:39;7.70;;;2.42;;
75218;SDS011;63801;49.414;19.474;2023-12-22T07:03:40;9.15;;;2.22;;
75218;SDS011;63801;49.414;19.474;2023-12-22T07:05:40;9.07;;;1.52;;
75218;SDS011;63801;49.414;19.474;2023-12-22T07:07:41;5.75;;;1.77;;
75218;SDS011;63801;49.414;19.474;2023-12-22T07:09:41;8.02;;;1.50;;
75218;SDS011;63801;49.414;19.474;2023-12-22T07:11:42;8.73;;;1.60;;
75218;SDS011;63801;49.414;19.474;2023-12-22T07:13:46;16.35;;;4.10;;
75218;SDS011;63801;49.414;19.474;2023-12-22T07:15:46;22.98;;;6.18;;
75218;SDS011;63801;49.414;19.474;2023-12-22T07:17:46;9.05;;;2.22;;
75218;SDS011;63801;49.414;19.474;2023-12-22T07:19:46;11.40;;;2.40;;
75218;SDS011;63801;49.414;19.474;2023-12-22T07:21:47;10.18;;;3.05;;
75218;SDS011;63801;49.414;19.474;2023-12-22T07:23:47;11.23;;;3.00;;
75218;SDS011;63801;49.414;19.474;2023-12-22T07:25:47;14.93;;;2.95;;
75218;SDS011;63801;49.414;19.474;2023-12-22T07:27:48;7.28;;;2.40;;
75218;SDS011;63801;49.414;19.474;2023-12-22T07:29:48;12.82;;;2.97;;
75218;SDS011;63801;49.414;19.474;2023-12-22T07:31:49;6.97;;;2.28;;
75218;SDS011;63801;49.414;19.474;2023-12-22T07:33:50;5.80;;;1.55;;
75218;SDS011;63801;49.414;19.474;2023-12-22T07:35:51;7.82;;;1.98;;
75218;SDS011;63801;49.414;19.474;2023-12-22T07:37:52;14.57;;;3.80;;
75218;SDS011;63801;49.414;19.474;2023-12-22T07:39:52;16.25;;;3.70;;
75218;SDS011;63801;49.414;19.474;2023-12-22T07:41:52;14.20;;;3.80;;
75218;SDS011;63801;49.414;19.474;2023-12-22T07:43:53;13.90;;;3.58;;
75218;SDS011;63801;49.414;19.474;2023-12-22T07:45:53;20.35;;;5.72;;
75218;SDS011;63801;49.414;19.474;2023-12-22T07:47:53;26.45;;;7.20;;
75218;SDS011;63801;49.414;19.474;2023-12-22T07:49:54;17.25;;;4.88;;
75218;SDS011;63801;49.414;19.474;2023-12-22T07:51:54;19.27;;;4.88;;
75218;SDS011;63801;49.414;19.474;2023-12-22T07:53:54;13.20;;;4.07;;
75218;SDS011;63801;49.414;19.474;2023-12-22T07:55:55;11.63;;;4.38;;
75218;SDS011;63801;49.414;19.474;2023-12-22T07:57:55;30.33;;;7.60;;
75218;SDS011;63801;49.414;19.474;2023-12-22T07:59:56;11.70;;;3.75;;
75218;SDS011;63801;49.414;19.474;2023-12-22T08:01:56;12.40;;;4.22;;
75218;SDS011;63801;49.414;19.474;2023-12-22T08:03:57;11.30;;;4.07;;
75218;SDS011;63801;49.414;19.474;2023-12-22T08:05:57;15.93;;;6.03;;
75218;SDS011;63801;49.414;19.474;2023-12-22T08:07:57;10.40;;;3.97;;
75218;SDS011;63801;49.414;19.474;2023-12-22T08:09:58;14.75;;;5.78;;
75218;SDS011;63801;49.414;19.474;2023-12-22T08:11:58;13.18;;;5.38;;
75218;SDS011;63801;49.414;19.474;2023-12-22T08:13:58;13.88;;;5.05;;
75218;SDS011;63801;49.414;19.474;2023-12-22T08:15:58;7.80;;;3.60;;
75218;SDS011;63801;49.414;19.474;2023-12-22T08:17:59;15.13;;;4.18;;
75218;SDS011;63801;49.414;19.474;2023-12-22T08:19:59;11.43;;;4.03;;
75218;SDS011;63801;49.414;19.474;2023-12-22T08:21:59;6.97;;;2.40;;
75218;SDS011;63801;49.414;19.474;2023-12-22T08:24:00;14.90;;;5.13;;
75218;SDS011;63801;49.414;19.474;2023-12-22T08:26:00;15.30;;;3.72;;
75218;SDS011;63801;49.414;19.474;2023-12-22T08:28:01;10.43;;;3.40;;
75218;SDS011;63801;49.414;19.474;2023-12-22T08:30:01;14.57;;;3.60;;
75218;SDS011;63801;49.414;19.474;2023-12-22T08:32:03;13.33;;;3.70;;
75218;SDS011;63801;49.414;19.474;2023-12-22T08:34:04;10.10;;;2.88;;
75218;SDS011;63801;49.414;19.474;2023-12-22T08:36:05;6.90;;;1.85;;
75218;SDS011;63801;49.414;19.474;2023-12-22T08:38:06;12.43;;;3.20;;
75218;SDS011;63801;49.414;19.474;2023-12-22T08:40:07;8.48;;;1.98;;
75218;SDS011;63801;49.414;19.474;2023-12-22T08:42:07;4.60;;;1.60;;
75218;SDS011;63801;49.414;19.474;2023-12-22T08:44:08;7.47;;;1.35;;
75218;SDS011;63801;49.414;19.474;2023-12-22T08:46:08;3.38;;;0.93;;
75218;SDS011;63801;49.414;19.474;2023-12-22T08:48:09;5.50;;;1.67;;
75218;SDS011;63801;49.414;19.474;2023-12-22T08:50:10;2.97;;;0.57;;
75218;SDS011;63801;49.414;19.474;2023-12-22T08:52:12;4.70;;;0.70;;
75218;SDS011;63801;49.414;19.474;2023-12-22T08:54:13;3.00;;;0.70;;
75218;SDS011;63801;49.414;19.474;2023-12-22T08:56:15;5.70;;;1.75;;
75218;SDS011;63801;49.414;19.474;2023-12-22T08:58:17;4.25;;;1.20;;
75218;SDS011;63801;49.414;19.474;2023-12-22T09:00:17;3.50;;;1.20;;
75218;SDS011;63801;49.414;19.474;2023-12-22T09:02:18;6.30;;;1.48;;
75218;SDS011;63801;49.414;19.474;2023-12-22T09:04:18;1.88;;;1.08;;
75218;SDS011;63801;49.414;19.474;2023-12-22T09:06:22;4.47;;;1.00;;
75218;SDS011;63801;49.414;19.474;2023-12-22T09:08:24;5.70;;;0.88;;
75218;SDS011;63801;49.414;19.474;2023-12-22T09:10:25;8.57;;;4.32;;
75218;SDS011;63801;49.414;19.474;2023-12-22T09:12:26;5.93;;;1.95;;
75218;SDS011;63801;49.414;19.474;2023-12-22T09:14:26;9.27;;;3.65;;
75218;SDS011;63801;49.414;19.474;2023-12-22T09:16:26;6.95;;;1.90;;
75218;SDS011;63801;49.414;19.474;2023-12-22T09:18:27;4.30;;;0.90;;
75218;SDS011;63801;49.414;19.474;2023-12-22T09:20:27;3.25;;;0.73;;
75218;SDS011;63801;49.414;19.474;2023-12-22T09:22:28;4.00;;;1.30;;
75218;SDS011;63801;49.414;19.474;2023-12-22T09:24:29;7.38;;;2.63;;
75218;SDS011;63801;49.414;19.474;2023-12-22T09:26:29;7.03;;;2.30;;
75218;SDS011;63801;49.414;19.474;2023-12-22T09:28:30;14.55;;;5.53;;
75218;SDS011;63801;49.414;19.474;2023-12-22T09:30:30;13.05;;;3.55;;
75218;SDS011;63801;49.414;19.474;2023-12-22T09:32:31;22.63;;;6.30;;
75218;SDS011;63801;49.414;19.474;2023-12-22T09:34:31;3.70;;;0.85;;
75218;SDS011;63801;49.414;19.474;2023-12-22T09:36:32;7.47;;;2.50;;
75218;SDS011;63801;49.414;19.474;2023-12-22T09:38:32;12.25;;;3.80;;
75218;SDS011;63801;49.414;19.474;2023-12-22T09:40:32;12.40;;;5.15;;
75218;SDS011;63801;49.414;19.474;2023-12-22T09:42:34;10.05;;;3.70;;
75218;SDS011;63801;49.414;19.474;2023-12-22T09:44:37;5.53;;;2.40;;
75218;SDS011;63801;49.414;19.474;2023-12-22T09:50:44;30.50;;;12.50;;
75218;SDS011;63801;49.414;19.474;2023-12-22T09:52:44;19.63;;;6.97;;
75218;SDS011;63801;49.414;19.474;2023-12-22T09:54:45;27.05;;;9.85;;
75218;SDS011;63801;49.414;19.474;2023-12-22T09:56:48;19.23;;;7.05;;
75218;SDS011;63801;49.414;19.474;2023-12-22T09:58:50;20.95;;;5.97;;
75218;SDS011;63801;49.414;19.474;2023-12-22T10:00:53;15.45;;;5.70;;
75218;SDS011;63801;49.414;19.474;2023-12-22T10:02:55;20.85;;;7.60;;
75218;SDS011;63801;49.414;19.474;2023-12-22T10:04:55;21.55;;;8.88;;
75218;SDS011;63801;49.414;19.474;2023-12-22T10:06:57;23.45;;;8.10;;
75218;SDS011;63801;49.414;19.474;2023-12-22T10:09:00;26.60;;;7.07;;
75218;SDS011;63801;49.414;19.474;2023-12-22T10:11:05;20.08;;;4.93;;
75218;SDS011;63801;49.414;19.474;2023-12-22T10:13:06;34.53;;;11.00;;
75218;SDS011;63801;49.414;19.474;2023-12-22T10:15:09;29.52;;;10.43;;
75218;SDS011;63801;49.414;19.474;2023-12-22T10:17:12;45.25;;;18.20;;
75218;SDS011;63801;49.414;19.474;2023-12-22T10:19:14;55.23;;;19.77;;
75218;SDS011;63801;49.414;19.474;2023-12-22T10:21:15;26.75;;;9.52;;
75218;SDS011;63801;49.414;19.474;2023-12-22T10:23:15;54.75;;;19.23;;
75218;SDS011;63801;49.414;19.474;2023-12-22T10:25:16;19.35;;;6.95;;
75218;SDS011;63801;49.414;19.474;2023-12-22T10:27:20;41.83;;;12.68;;
75218;SDS011;63801;49.414;19.474;2023-12-22T10:29:23;16.67;;;5.95;;
75218;SDS011;63801;49.414;19.474;2023-12-22T10:31:23;16.92;;;4.80;;
75218;SDS011;63801;49.414;19.474;2023-12-22T10:33:25;14.70;;;4.17;;
75218;SDS011;63801;49.414;19.474;2023-12-22T10:35:26;11.80;;;3.30;;
75218;SDS011;63801;49.414;19.474;2023-12-22T10:37:26;10.90;;;3.33;;
75218;SDS011;63801;49.414;19.474;2023-12-22T10:39:27;8.90;;;2.28;;
75218;SDS011;63801;49.414;19.474;2023-12-22T10:41:31;5.72;;;2.00;;
75218;SDS011;63801;49.414;19.474;2023-12-22T10:43:38;11.85;;;2.50;;
75218;SDS011;63801;49.414;19.474;2023-12-22T10:45:39;10.40;;;2.63;;
75218;SDS011;63801;49.414;19.474;2023-12-22T10:47:40;5.93;;;1.77;;
75218;SDS011;63801;49.414;19.474;2023-12-22T10:49:41;5.85;;;2.63;;
75218;SDS011;63801;49.414;19.474;2023-12-22T10:51:41;7.97;;;2.08;;
75218;SDS011;63801;49.414;19.474;2023-12-22T10:53:42;7.15;;;2.03;;
75218;SDS011;63801;49.414;19.474;2023-12-22T10:55:43;10.27;;;1.98;;
75218;SDS011;63801;49.414;19.474;2023-12-22T10:57:47;8.65;;;2.20;;
75218;SDS011;63801;49.414;19.474;2023-12-22T10:59:47;6.18;;;2.15;;
75218;SDS011;63801;49.414;19.474;2023-12-22T11:01:47;5.78;;;2.08;;
75218;SDS011;63801;49.414;19.474;2023-12-22T11:03:51;8.30;;;2.58;;
75218;SDS011;63801;49.414;19.474;2023-12-22T11:05:52;7.20;;;2.72;;
75218;SDS011;63801;49.414;19.474;2023-12-22T11:10:02;15.07;;;4.45;;
75218;SDS011;63801;49.414;19.474;2023-12-22T11:14:06;16.92;;;5.75;;
75218;SDS011;63801;49.414;19.474;2023-12-22T11:16:07;18.33;;;6.18;;
75218;SDS011;63801;49.414;19.474;2023-12-22T11:18:08;12.57;;;3.63;;
75218;SDS011;63801;49.414;19.474;2023-12-22T11:20:10;10.55;;;3.40;;
75218;SDS011;63801;49.414;19.474;2023-12-22T11:22:12;11.35;;;3.83;;
75218;SDS011;63801;49.414;19.474;2023-12-22T11:24:15;9.82;;;2.92;;
75218;SDS011;63801;49.414;19.474;2023-12-22T11:26:17;11.77;;;4.45;;
75218;SDS011;63801;49.414;19.474;2023-12-22T11:28:18;10.20;;;2.75;;
75218;SDS011;63801;49.414;19.474;2023-12-22T11:30:21;18.80;;;4.88;;
75218;SDS011;63801;49.414;19.474;2023-12-22T11:32:25;13.20;;;5.65;;
75218;SDS011;63801;49.414;19.474;2023-12-22T11:34:28;8.30;;;2.97;;
75218;SDS011;63801;49.414;19.474;2023-12-22T11:36:31;6.20;;;2.90;;
75218;SDS011;63801;49.414;19.474;2023-12-22T11:38:31;11.15;;;3.50;;
75218;SDS011;63801;49.414;19.474;2023-12-22T11:40:32;10.57;;;3.33;;
75218;SDS011;63801;49.414;19.474;2023-12-22T11:42:33;9.68;;;3.10;;
75218;SDS011;63801;49.414;19.474;2023-12-22T11:44:39;9.00;;;2.88;;
75218;SDS011;63801;49.414;19.474;2023-12-22T11:46:40;8.48;;;3.22;;
75218;SDS011;63801;49.414;19.474;2023-12-22T11:48:46;9.95;;;3.45;;
75218;SDS011;63801;49.414;19.474;2023-12-22T11:50:47;12.25;;;4.03;;
75218;SDS011;63801;49.414;19.474;2023-12-22T11:52:48;10.98;;;3.60;;
75218;SDS011;63801;49.414;19.474;2023-12-22T11:54:50;22.95;;;7.07;;
75218;SDS011;63801;49.414;19.474;2023-12-22T11:56:51;13.70;;;4.90;;
75218;SDS011;63801;49.414;19.474;2023-12-22T11:58:52;18.58;;;5.70;;
75218;SDS011;63801;49.414;19.474;2023-12-22T12:00:54;12.98;;;4.53;;
75218;SDS011;63801;49.414;19.474;2023-12-22T12:02:54;12.30;;;3.40;;
75218;SDS011;63801;49.414;19.474;2023-12-22T12:04:56;11.85;;;3.60;;